KCVG/CVG METAR and TAF weather

Enter ICAO airport designator
Station Type Date Time Source
KCVG METAR 2019/08/22 01:52 UTC NOAA

KCVG 220152Z 00000KT 10SM CLR 24/19 A2998 RMK AO2 SLP142 T02390194


Station Type Date Time Source
KCVG Decoded METAR 2019/08/22 01:52 UTC NOAA

Station name not available
Aug 21, 2019 - 09:52 PM EDT / 2019.08.22 0152 UTC
Wind: Calm:0
Visibility: 10 mile(s):0
Sky conditions: clear
Temperature: 75.0 F (23.9 C)
Dew Point: 66.9 F (19.4 C)
Relative Humidity: 75%
Pressure (altimeter): 29.98 in. Hg (1015 hPa)
ob: KCVG 220152Z 00000KT 10SM CLR 24/19 A2998 RMK AO2 SLP142 T02390194
cycle: 2

Station Type Date Time Source
KCVG TAF 2019/08/21 21:58 UTC NOAA

TAF
AMD KCVG 212058Z 2121/2224 28008KT P6SM SCT250
FM220600 22004KT P6SM VCSH SCT050 BKN100
FM221100 25005KT P6SM VCSH BKN022
FM221500 24006KT P6SM BKN035
FM222100 26007KT P6SM -SHRA VCTS OVC040CB

Example: see airport list